sensor_id;sensor_type;location;lat;lon;timestamp;temperature;humidity
44731;DHT22;30458;47.448;19.032;2023-04-15T00:02:52;9.10;99.90
44731;DHT22;30458;47.448;19.032;2023-04-15T00:12:53;9.10;99.90
44731;DHT22;30458;47.448;19.032;2023-04-15T00:22:54;9.20;99.90
44731;DHT22;30458;47.448;19.032;2023-04-15T00:32:57;9.40;99.90
44731;DHT22;30458;47.448;19.032;2023-04-15T00:42:58;9.50;99.90
44731;DHT22;30458;47.448;19.032;2023-04-15T00:52:58;9.60;99.90
44731;DHT22;30458;47.448;19.032;2023-04-15T01:03:01;9.80;99.90
44731;DHT22;30458;47.448;19.032;2023-04-15T01:13:03;9.70;99.90
44731;DHT22;30458;47.448;19.032;2023-04-15T01:23:03;9.70;99.90
44731;DHT22;30458;47.448;19.032;2023-04-15T01:33:05;9.70;99.90
44731;DHT22;30458;47.448;19.032;2023-04-15T01:43:11;9.90;99.90
44731;DHT22;30458;47.448;19.032;2023-04-15T01:53:12;10.00;99.90
44731;DHT22;30458;47.448;19.032;2023-04-15T02:03:12;10.20;99.90
44731;DHT22;30458;47.448;19.032;2023-04-15T02:13:15;10.20;99.90
44731;DHT22;30458;47.448;19.032;2023-04-15T02:23:16;10.20;99.90
44731;DHT22;30458;47.448;19.032;2023-04-15T02:33:18;9.90;99.90
44731;DHT22;30458;47.448;19.032;2023-04-15T02:43:21;9.90;99.90
44731;DHT22;30458;47.448;19.032;2023-04-15T02:53:23;9.90;99.90
44731;DHT22;30458;47.448;19.032;2023-04-15T03:03:27;9.70;99.90
44731;DHT22;30458;47.448;19.032;2023-04-15T03:13:30;9.70;99.90
44731;DHT22;30458;47.448;19.032;2023-04-15T03:23:35;9.70;99.90
44731;DHT22;30458;47.448;19.032;2023-04-15T03:33:39;9.70;99.90
44731;DHT22;30458;47.448;19.032;2023-04-15T03:43:42;9.60;99.90
44731;DHT22;30458;47.448;19.032;2023-04-15T03:53:45;9.70;99.90
44731;DHT22;30458;47.448;19.032;2023-04-15T04:03:46;9.70;99.90
44731;DHT22;30458;47.448;19.032;2023-04-15T04:13:49;9.80;99.90
44731;DHT22;30458;47.448;19.032;2023-04-15T04:23:49;9.70;99.90
44731;DHT22;30458;47.448;19.032;2023-04-15T04:33:50;9.60;99.90
44731;DHT22;30458;47.448;19.032;2023-04-15T04:43:51;9.70;99.90
44731;DHT22;30458;47.448;19.032;2023-04-15T04:53:52;9.90;99.90
44731;DHT22;30458;47.448;19.032;2023-04-15T05:03:53;10.00;99.90
44731;DHT22;30458;47.448;19.032;2023-04-15T05:13:56;10.30;99.90
44731;DHT22;30458;47.448;19.032;2023-04-15T05:24:02;10.40;99.90
44731;DHT22;30458;47.448;19.032;2023-04-15T05:34:05;9.60;99.90
44731;DHT22;30458;47.448;19.032;2023-04-15T05:44:08;9.50;99.90
44731;DHT22;30458;47.448;19.032;2023-04-15T05:54:09;9.60;99.90
44731;DHT22;30458;47.448;19.032;2023-04-15T06:04:13;9.60;99.90
44731;DHT22;30458;47.448;19.032;2023-04-15T06:14:14;9.30;99.90
44731;DHT22;30458;47.448;19.032;2023-04-15T06:24:20;9.20;99.90
44731;DHT22;30458;47.448;19.032;2023-04-15T06:34:21;9.40;99.90
44731;DHT22;30458;47.448;19.032;2023-04-15T06:44:24;11.00;99.90
44731;DHT22;30458;47.448;19.032;2023-04-15T06:54:28;13.60;99.90
44731;DHT22;30458;47.448;19.032;2023-04-15T07:04:31;14.30;99.90
44731;DHT22;30458;47.448;19.032;2023-04-15T07:14:34;14.00;99.90
44731;DHT22;30458;47.448;19.032;2023-04-15T07:24:34;15.10;99.90
44731;DHT22;30458;47.448;19.032;2023-04-15T07:34:38;17.70;97.80
44731;DHT22;30458;47.448;19.032;2023-04-15T07:44:38;17.10;97.50
44731;DHT22;30458;47.448;19.032;2023-04-15T07:54:44;14.80;99.10
44731;DHT22;30458;47.448;19.032;2023-04-15T08:04:45;14.00;99.90
44731;DHT22;30458;47.448;19.032;2023-04-15T08:14:46;13.70;99.90
44731;DHT22;30458;47.448;19.032;2023-04-15T08:24:47;13.90;99.90
44731;DHT22;30458;47.448;19.032;2023-04-15T08:34:47;13.20;99.90
44731;DHT22;30458;47.448;19.032;2023-04-15T08:44:51;12.50;99.90
44731;DHT22;30458;47.448;19.032;2023-04-15T08:54:56;12.80;99.90
44731;DHT22;30458;47.448;19.032;2023-04-15T09:04:58;13.30;99.90
44731;DHT22;30458;47.448;19.032;2023-04-15T09:14:59;13.20;99.90
44731;DHT22;30458;47.448;19.032;2023-04-15T09:25:05;12.60;99.90
44731;DHT22;30458;47.448;19.032;2023-04-15T09:35:27;12.30;99.90
44731;DHT22;30458;47.448;19.032;2023-04-15T09:45:28;12.80;99.90
44731;DHT22;30458;47.448;19.032;2023-04-15T09:55:32;12.70;99.90
44731;DHT22;30458;47.448;19.032;2023-04-15T10:05:35;12.30;99.90
44731;DHT22;30458;47.448;19.032;2023-04-15T10:15:36;12.60;99.90
44731;DHT22;30458;47.448;19.032;2023-04-15T10:25:38;12.60;99.90
44731;DHT22;30458;47.448;19.032;2023-04-15T10:35:39;13.00;99.90
44731;DHT22;30458;47.448;19.032;2023-04-15T10:45:44;13.30;99.90
44731;DHT22;30458;47.448;19.032;2023-04-15T10:55:48;13.10;99.90
44731;DHT22;30458;47.448;19.032;2023-04-15T11:05:52;12.90;99.90
44731;DHT22;30458;47.448;19.032;2023-04-15T11:15:57;12.70;99.90
44731;DHT22;30458;47.448;19.032;2023-04-15T11:25:59;12.50;99.90
44731;DHT22;30458;47.448;19.032;2023-04-15T11:36:01;12.80;99.90
44731;DHT22;30458;47.448;19.032;2023-04-15T11:46:03;12.80;99.90
44731;DHT22;30458;47.448;19.032;2023-04-15T11:56:04;12.80;99.90
44731;DHT22;30458;47.448;19.032;2023-04-15T12:06:19;12.30;99.90
44731;DHT22;30458;47.448;19.032;2023-04-15T12:16:23;13.20;99.90
44731;DHT22;30458;47.448;19.032;2023-04-15T12:36:45;13.30;99.90
44731;DHT22;30458;47.448;19.032;2023-04-15T12:46:47;12.90;99.90
44731;DHT22;30458;47.448;19.032;2023-04-15T12:56:49;12.80;99.90
44731;DHT22;30458;47.448;19.032;2023-04-15T13:06:52;13.10;99.90
44731;DHT22;30458;47.448;19.032;2023-04-15T13:16:55;13.00;99.90
44731;DHT22;30458;47.448;19.032;2023-04-15T13:26:58;12.90;99.90
44731;DHT22;30458;47.448;19.032;2023-04-15T13:37:06;13.20;99.90
44731;DHT22;30458;47.448;19.032;2023-04-15T13:47:08;12.80;99.90
44731;DHT22;30458;47.448;19.032;2023-04-15T13:57:09;13.00;99.90
44731;DHT22;30458;47.448;19.032;2023-04-15T14:07:13;13.10;99.90
44731;DHT22;30458;47.448;19.032;2023-04-15T14:17:14;13.30;99.90
44731;DHT22;30458;47.448;19.032;2023-04-15T14:27:17;13.50;99.90
44731;DHT22;30458;47.448;19.032;2023-04-15T14:37:18;12.90;99.90
44731;DHT22;30458;47.448;19.032;2023-04-15T14:47:19;12.50;99.90
44731;DHT22;30458;47.448;19.032;2023-04-15T14:57:20;12.40;99.90
44731;DHT22;30458;47.448;19.032;2023-04-15T15:07:25;12.60;99.90
44731;DHT22;30458;47.448;19.032;2023-04-15T15:17:29;12.40;99.90
44731;DHT22;30458;47.448;19.032;2023-04-15T15:27:30;12.30;99.90
44731;DHT22;30458;47.448;19.032;2023-04-15T15:37:33;12.30;99.90
44731;DHT22;30458;47.448;19.032;2023-04-15T15:47:34;12.30;99.90
44731;DHT22;30458;47.448;19.032;2023-04-15T15:57:35;12.10;99.90
44731;DHT22;30458;47.448;19.032;2023-04-15T16:07:38;12.30;99.90
44731;DHT22;30458;47.448;19.032;2023-04-15T16:17:41;12.50;99.90
44731;DHT22;30458;47.448;19.032;2023-04-15T16:27:42;12.30;99.90
44731;DHT22;30458;47.448;19.032;2023-04-15T16:37:43;12.20;99.90
44731;DHT22;30458;47.448;19.032;2023-04-15T16:47:44;11.80;99.90
44731;DHT22;30458;47.448;19.032;2023-04-15T16:57:44;11.80;99.90
44731;DHT22;30458;47.448;19.032;2023-04-15T17:07:45;11.90;99.90
44731;DHT22;30458;47.448;19.032;2023-04-15T17:17:48;12.20;99.90
44731;DHT22;30458;47.448;19.032;2023-04-15T17:27:49;12.20;99.90
44731;DHT22;30458;47.448;19.032;2023-04-15T17:37:52;12.20;99.90
44731;DHT22;30458;47.448;19.032;2023-04-15T17:47:53;12.40;99.90
44731;DHT22;30458;47.448;19.032;2023-04-15T17:57:56;12.50;99.90
44731;DHT22;30458;47.448;19.032;2023-04-15T18:07:59;12.50;99.90
44731;DHT22;30458;47.448;19.032;2023-04-15T18:18:00;12.50;99.90
44731;DHT22;30458;47.448;19.032;2023-04-15T18:28:01;12.30;99.90
44731;DHT22;30458;47.448;19.032;2023-04-15T18:38:04;12.20;99.90
44731;DHT22;30458;47.448;19.032;2023-04-15T18:48:07;12.20;99.90
44731;DHT22;30458;47.448;19.032;2023-04-15T18:58:08;12.10;99.90
44731;DHT22;30458;47.448;19.032;2023-04-15T19:08:09;12.10;99.90
44731;DHT22;30458;47.448;19.032;2023-04-15T19:18:12;12.00;99.90
44731;DHT22;30458;47.448;19.032;2023-04-15T19:28:16;12.00;99.90
44731;DHT22;30458;47.448;19.032;2023-04-15T19:38:17;11.90;99.90
44731;DHT22;30458;47.448;19.032;2023-04-15T19:48:20;11.70;99.90
44731;DHT22;30458;47.448;19.032;2023-04-15T19:58:21;11.70;99.90
44731;DHT22;30458;47.448;19.032;2023-04-15T20:08:24;11.60;99.90
44731;DHT22;30458;47.448;19.032;2023-04-15T20:18:25;11.60;99.90
44731;DHT22;30458;47.448;19.032;2023-04-15T20:28:26;11.60;99.90
44731;DHT22;30458;47.448;19.032;2023-04-15T20:38:27;11.10;99.90
44731;DHT22;30458;47.448;19.032;2023-04-15T20:48:28;11.10;99.90
44731;DHT22;30458;47.448;19.032;2023-04-15T20:58:31;11.30;99.90
44731;DHT22;30458;47.448;19.032;2023-04-15T21:08:34;11.40;99.90
44731;DHT22;30458;47.448;19.032;2023-04-15T21:18:34;11.20;99.90
44731;DHT22;30458;47.448;19.032;2023-04-15T21:28:37;11.30;99.90
44731;DHT22;30458;47.448;19.032;2023-04-15T21:38:38;11.30;99.90
44731;DHT22;30458;47.448;19.032;2023-04-15T21:48:41;11.20;99.90
44731;DHT22;30458;47.448;19.032;2023-04-15T21:58:42;11.00;99.90
44731;DHT22;30458;47.448;19.032;2023-04-15T22:08:45;11.10;99.90
44731;DHT22;30458;47.448;19.032;2023-04-15T22:18:46;11.00;99.90
44731;DHT22;30458;47.448;19.032;2023-04-15T22:28:50;11.00;99.90
44731;DHT22;30458;47.448;19.032;2023-04-15T22:38:51;11.00;99.90
44731;DHT22;30458;47.448;19.032;2023-04-15T22:48:51;10.90;99.90
44731;DHT22;30458;47.448;19.032;2023-04-15T22:58:53;10.90;99.90
44731;DHT22;30458;47.448;19.032;2023-04-15T23:08:57;10.80;99.90
44731;DHT22;30458;47.448;19.032;2023-04-15T23:18:58;10.90;99.90
44731;DHT22;30458;47.448;19.032;2023-04-15T23:29:00;10.90;99.90
44731;DHT22;30458;47.448;19.032;2023-04-15T23:39:06;10.80;99.90
44731;DHT22;30458;47.448;19.032;2023-04-15T23:49:10;10.80;99.90
44731;DHT22;30458;47.448;19.032;2023-04-15T23:59:10;10.80;99.90
